sensor_id;sensor_type;location;lat;lon;timestamp;pressure;altitude;pressure_sealevel;temperature;humidity
30935;BME280;51033;42.648;23.292;2023-04-03T00:01:29;93240.84;;;9.47;46.27
30935;BME280;51033;42.648;23.292;2023-04-03T00:03:55;93228.06;;;9.40;46.30
30935;BME280;51033;42.648;23.292;2023-04-03T00:06:21;93228.16;;;9.53;45.90
30935;BME280;51033;42.648;23.292;2023-04-03T00:08:47;93181.59;;;9.26;45.83
30935;BME280;51033;42.648;23.292;2023-04-03T00:11:12;93200.91;;;9.43;45.68
30935;BME280;51033;42.648;23.292;2023-04-03T00:13:39;93225.34;;;9.58;45.77
30935;BME280;51033;42.648;23.292;2023-04-03T00:16:05;93226.97;;;9.41;46.25
30935;BME280;51033;42.648;23.292;2023-04-03T00:18:31;93217.91;;;9.42;46.06
30935;BME280;51033;42.648;23.292;2023-04-03T00:20:57;93220.63;;;9.34;46.31
30935;BME280;51033;42.648;23.292;2023-04-03T00:23:22;93215.44;;;9.37;46.24
30935;BME280;51033;42.648;23.292;2023-04-03T00:25:50;93207.28;;;9.42;46.03
30935;BME280;51033;42.648;23.292;2023-04-03T00:28:15;93214.44;;;9.51;45.99
30935;BME280;51033;42.648;23.292;2023-04-03T00:30:41;93196.22;;;9.40;46.15
30935;BME280;51033;42.648;23.292;2023-04-03T00:33:07;93208.63;;;9.57;45.92
30935;BME280;51033;42.648;23.292;2023-04-03T00:35:34;93169.94;;;9.18;46.41
30935;BME280;51033;42.648;23.292;2023-04-03T00:38:00;93205.00;;;9.32;46.21
30935;BME280;51033;42.648;23.292;2023-04-03T00:40:27;93215.69;;;9.44;46.06
30935;BME280;51033;42.648;23.292;2023-04-03T00:42:57;93208.84;;;9.43;46.01
30935;BME280;51033;42.648;23.292;2023-04-03T00:45:45;93217.81;;;9.60;45.79
30935;BME280;51033;42.648;23.292;2023-04-03T00:48:17;93209.44;;;9.49;45.80
30935;BME280;51033;42.648;23.292;2023-04-03T00:50:44;93214.44;;;9.51;46.19
30935;BME280;51033;42.648;23.292;2023-04-03T00:53:14;93211.03;;;9.41;46.34
30935;BME280;51033;42.648;23.292;2023-04-03T00:55:41;93193.66;;;9.23;46.53
30935;BME280;51033;42.648;23.292;2023-04-03T00:58:08;93205.97;;;9.28;46.11
30935;BME280;51033;42.648;23.292;2023-04-03T01:00:37;93227.16;;;9.36;46.24
30935;BME280;51033;42.648;23.292;2023-04-03T01:03:03;93180.09;;;9.08;46.17
30935;BME280;51033;42.648;23.292;2023-04-03T01:05:28;93224.06;;;9.26;46.13
30935;BME280;51033;42.648;23.292;2023-04-03T01:07:54;93213.97;;;9.19;46.55
30935;BME280;51033;42.648;23.292;2023-04-03T01:10:20;93236.28;;;9.18;46.35
30935;BME280;51033;42.648;23.292;2023-04-03T01:12:49;93198.41;;;8.92;46.49
30935;BME280;51033;42.648;23.292;2023-04-03T01:15:21;93231.44;;;9.03;46.99
30935;BME280;51033;42.648;23.292;2023-04-03T01:17:56;93236.16;;;8.97;46.77
30935;BME280;51033;42.648;23.292;2023-04-03T01:25:38;93231.78;;;8.93;47.35
30935;BME280;51033;42.648;23.292;2023-04-03T01:28:06;93222.41;;;9.13;46.64
30935;BME280;51033;42.648;23.292;2023-04-03T01:30:42;93206.25;;;8.80;47.34
30935;BME280;51033;42.648;23.292;2023-04-03T01:33:09;93222.91;;;8.89;47.23
30935;BME280;51033;42.648;23.292;2023-04-03T01:35:35;93226.66;;;8.88;47.28
30935;BME280;51033;42.648;23.292;2023-04-03T01:38:01;93227.78;;;8.70;48.06
30935;BME280;51033;42.648;23.292;2023-04-03T01:40:26;93221.38;;;8.71;48.00
30935;BME280;51033;42.648;23.292;2023-04-03T01:42:51;93193.34;;;8.52;47.84
30935;BME280;51033;42.648;23.292;2023-04-03T01:45:17;93227.16;;;8.73;47.48
30935;BME280;51033;42.648;23.292;2023-04-03T01:47:42;93228.13;;;8.59;48.50
30935;BME280;51033;42.648;23.292;2023-04-03T01:50:08;93223.44;;;8.56;48.22
30935;BME280;51033;42.648;23.292;2023-04-03T01:52:34;93196.94;;;8.48;47.93
30935;BME280;51033;42.648;23.292;2023-04-03T01:54:59;93230.91;;;8.63;48.16
30935;BME280;51033;42.648;23.292;2023-04-03T01:57:25;93206.16;;;8.33;48.21
30935;BME280;51033;42.648;23.292;2023-04-03T01:59:50;93235.00;;;8.43;48.54
30935;BME280;51033;42.648;23.292;2023-04-03T02:02:16;93216.59;;;8.04;48.90
30935;BME280;51033;42.648;23.292;2023-04-03T02:04:42;93203.06;;;8.05;48.63
30935;BME280;51033;42.648;23.292;2023-04-03T02:07:07;93228.44;;;8.24;48.88
30935;BME280;51033;42.648;23.292;2023-04-03T02:09:33;93223.31;;;8.19;48.62
30935;BME280;51033;42.648;23.292;2023-04-03T02:11:58;93225.03;;;8.23;48.56
30935;BME280;51033;42.648;23.292;2023-04-03T02:14:24;93200.72;;;8.04;48.79
30935;BME280;51033;42.648;23.292;2023-04-03T02:16:50;93232.50;;;8.21;48.54
30935;BME280;51033;42.648;23.292;2023-04-03T02:19:15;93229.06;;;8.12;48.83
30935;BME280;51033;42.648;23.292;2023-04-03T02:21:41;93218.16;;;7.96;48.90
30935;BME280;51033;42.648;23.292;2023-04-03T02:24:07;93233.75;;;8.15;48.95
30935;BME280;51033;42.648;23.292;2023-04-03T02:26:32;93223.00;;;8.11;49.18
30935;BME280;51033;42.648;23.292;2023-04-03T02:28:58;93226.25;;;8.08;48.95
30935;BME280;51033;42.648;23.292;2023-04-03T02:31:23;93233.44;;;8.17;49.00
30935;BME280;51033;42.648;23.292;2023-04-03T02:33:49;93221.28;;;8.07;48.94
30935;BME280;51033;42.648;23.292;2023-04-03T02:36:15;93214.75;;;7.96;49.12
30935;BME280;51033;42.648;23.292;2023-04-03T02:38:40;93215.66;;;8.00;49.18
30935;BME280;51033;42.648;23.292;2023-04-03T02:41:08;93220.50;;;8.06;49.17
30935;BME280;51033;42.648;23.292;2023-04-03T02:43:34;93217.53;;;8.08;49.44
30935;BME280;51033;42.648;23.292;2023-04-03T02:45:59;93206.94;;;7.99;49.35
30935;BME280;51033;42.648;23.292;2023-04-03T02:48:25;93212.72;;;8.01;49.30
30935;BME280;51033;42.648;23.292;2023-04-03T02:50:51;93200.41;;;7.97;49.23
30935;BME280;51033;42.648;23.292;2023-04-03T02:53:17;93206.63;;;8.01;49.12
30935;BME280;51033;42.648;23.292;2023-04-03T02:55:43;93194.34;;;7.96;49.22
30935;BME280;51033;42.648;23.292;2023-04-03T02:58:09;93182.94;;;7.79;49.52
30935;BME280;51033;42.648;23.292;2023-04-03T03:00:35;93202.88;;;7.93;49.55
30935;BME280;51033;42.648;23.292;2023-04-03T03:03:01;93179.31;;;7.66;49.61
30935;BME280;51033;42.648;23.292;2023-04-03T03:05:27;93190.84;;;7.70;50.02
30935;BME280;51033;42.648;23.292;2023-04-03T03:07:53;93197.69;;;7.71;49.89
30935;BME280;51033;42.648;23.292;2023-04-03T03:10:19;93192.63;;;7.92;49.46
30935;BME280;51033;42.648;23.292;2023-04-03T03:12:44;93181.22;;;7.83;49.52
30935;BME280;51033;42.648;23.292;2023-04-03T03:15:10;93188.72;;;7.81;49.78
30935;BME280;51033;42.648;23.292;2023-04-03T03:17:36;93171.84;;;7.68;49.90
30935;BME280;51033;42.648;23.292;2023-04-03T03:20:03;93187.91;;;7.71;49.96
30935;BME280;51033;42.648;23.292;2023-04-03T03:22:29;93183.03;;;7.56;50.13
30935;BME280;51033;42.648;23.292;2023-04-03T03:24:54;93175.41;;;7.46;50.11
30935;BME280;51033;42.648;23.292;2023-04-03T03:27:20;93187.25;;;7.57;50.55
30935;BME280;51033;42.648;23.292;2023-04-03T03:29:46;93179.47;;;7.52;50.42
30935;BME280;51033;42.648;23.292;2023-04-03T03:32:11;93189.63;;;7.67;50.50
30935;BME280;51033;42.648;23.292;2023-04-03T03:34:37;93183.97;;;7.52;50.38
30935;BME280;51033;42.648;23.292;2023-04-03T03:37:02;93188.00;;;7.49;50.98
30935;BME280;51033;42.648;23.292;2023-04-03T03:39:28;93194.56;;;7.52;50.73
30935;BME280;51033;42.648;23.292;2023-04-03T03:41:53;93178.81;;;7.38;50.94
30935;BME280;51033;42.648;23.292;2023-04-03T03:44:19;93149.50;;;7.17;50.88
30935;BME280;51033;42.648;23.292;2023-04-03T03:46:45;93191.13;;;7.51;51.21
30935;BME280;51033;42.648;23.292;2023-04-03T03:49:11;93189.56;;;7.50;50.90
30935;BME280;51033;42.648;23.292;2023-04-03T03:51:40;93190.06;;;7.52;51.32
30935;BME280;51033;42.648;23.292;2023-04-03T03:54:06;93193.16;;;7.54;51.11
30935;BME280;51033;42.648;23.292;2023-04-03T03:56:31;93200.16;;;7.50;51.14
30935;BME280;51033;42.648;23.292;2023-04-03T03:58:57;93191.59;;;7.53;51.07
30935;BME280;51033;42.648;23.292;2023-04-03T04:01:23;93194.41;;;7.48;50.94
30935;BME280;51033;42.648;23.292;2023-04-03T04:03:49;93191.56;;;7.36;51.13
30935;BME280;51033;42.648;23.292;2023-04-03T04:06:15;93185.03;;;7.34;51.20
30935;BME280;51033;42.648;23.292;2023-04-03T04:08:41;93187.34;;;7.35;51.15
30935;BME280;51033;42.648;23.292;2023-04-03T04:11:08;93193.78;;;7.60;50.47
30935;BME280;51033;42.648;23.292;2023-04-03T04:13:34;93191.13;;;7.43;51.00
30935;BME280;51033;42.648;23.292;2023-04-03T04:15:59;93173.47;;;7.21;50.97
30935;BME280;51033;42.648;23.292;2023-04-03T04:18:25;93189.00;;;7.14;51.46
30935;BME280;51033;42.648;23.292;2023-04-03T04:20:51;93212.38;;;7.29;51.77
30935;BME280;51033;42.648;23.292;2023-04-03T04:23:18;93215.41;;;7.53;51.03
30935;BME280;51033;42.648;23.292;2023-04-03T04:25:47;93207.00;;;7.60;51.10
30935;BME280;51033;42.648;23.292;2023-04-03T04:28:12;93188.13;;;7.27;51.93
30935;BME280;51033;42.648;23.292;2023-04-03T04:30:38;93208.34;;;7.32;52.62
30935;BME280;51033;42.648;23.292;2023-04-03T04:33:03;93196.97;;;7.22;52.56
30935;BME280;51033;42.648;23.292;2023-04-03T04:35:28;93203.03;;;7.23;52.63
30935;BME280;51033;42.648;23.292;2023-04-03T04:37:54;93194.00;;;7.24;52.52
30935;BME280;51033;42.648;23.292;2023-04-03T04:40:19;93202.63;;;7.38;52.49
30935;BME280;51033;42.648;23.292;2023-04-03T04:42:45;93201.69;;;7.43;52.51
30935;BME280;51033;42.648;23.292;2023-04-03T04:45:10;93214.03;;;7.64;52.28
30935;BME280;51033;42.648;23.292;2023-04-03T04:47:36;93212.88;;;7.40;52.64
30935;BME280;51033;42.648;23.292;2023-04-03T04:50:01;93232.19;;;7.40;53.23
30935;BME280;51033;42.648;23.292;2023-04-03T04:52:27;93227.97;;;7.39;53.43
30935;BME280;51033;42.648;23.292;2023-04-03T04:54:52;93232.53;;;7.47;53.56
30935;BME280;51033;42.648;23.292;2023-04-03T04:57:17;93236.88;;;7.43;53.74
30935;BME280;51033;42.648;23.292;2023-04-03T04:59:43;93216.16;;;7.37;54.10
30935;BME280;51033;42.648;23.292;2023-04-03T05:02:08;93219.56;;;7.37;54.16
30935;BME280;51033;42.648;23.292;2023-04-03T05:04:33;93222.09;;;7.42;54.27
30935;BME280;51033;42.648;23.292;2023-04-03T05:06:59;93239.84;;;7.50;54.02
30935;BME280;51033;42.648;23.292;2023-04-03T05:09:25;93227.69;;;7.49;54.36
30935;BME280;51033;42.648;23.292;2023-04-03T05:11:50;93241.56;;;7.63;54.45
30935;BME280;51033;42.648;23.292;2023-04-03T05:14:16;93251.13;;;7.73;54.68
30935;BME280;51033;42.648;23.292;2023-04-03T05:16:41;93224.63;;;7.64;54.73
30935;BME280;51033;42.648;23.292;2023-04-03T05:19:07;93253.66;;;7.87;54.67
30935;BME280;51033;42.648;23.292;2023-04-03T05:21:33;93246.03;;;7.85;54.66
30935;BME280;51033;42.648;23.292;2023-04-03T05:24:00;93267.66;;;7.39;55.52
30935;BME280;51033;42.648;23.292;2023-04-03T05:26:29;93255.84;;;7.06;56.63
30935;BME280;51033;42.648;23.292;2023-04-03T05:28:55;93269.44;;;6.91;57.13
30935;BME280;51033;42.648;23.292;2023-04-03T05:31:20;93269.22;;;7.09;57.08
30935;BME280;51033;42.648;23.292;2023-04-03T05:33:46;93254.00;;;7.46;55.71
30935;BME280;51033;42.648;23.292;2023-04-03T05:36:12;93254.34;;;7.61;55.11
30935;BME280;51033;42.648;23.292;2023-04-03T05:38:38;93254.91;;;7.81;53.81
30935;BME280;51033;42.648;23.292;2023-04-03T05:41:04;93239.31;;;7.79;53.43
30935;BME280;51033;42.648;23.292;2023-04-03T05:43:29;93234.81;;;7.88;52.95
30935;BME280;51033;42.648;23.292;2023-04-03T05:45:55;93258.34;;;7.90;53.30
30935;BME280;51033;42.648;23.292;2023-04-03T05:48:20;93249.16;;;8.13;53.72
30935;BME280;51033;42.648;23.292;2023-04-03T05:50:46;93229.06;;;8.12;53.56
30935;BME280;51033;42.648;23.292;2023-04-03T05:53:23;93248.22;;;8.18;53.09
30935;BME280;51033;42.648;23.292;2023-04-03T05:55:50;93235.13;;;8.12;52.74
30935;BME280;51033;42.648;23.292;2023-04-03T05:58:15;93245.28;;;8.19;52.72
30935;BME280;51033;42.648;23.292;2023-04-03T06:00:40;93240.47;;;8.21;53.19
30935;BME280;51033;42.648;23.292;2023-04-03T06:03:06;93243.41;;;8.37;52.79
30935;BME280;51033;42.648;23.292;2023-04-03T06:05:32;93228.75;;;8.39;52.91
30935;BME280;51033;42.648;23.292;2023-04-03T06:07:57;93237.63;;;8.52;53.03
30935;BME280;51033;42.648;23.292;2023-04-03T06:10:23;93194.78;;;8.33;52.90
30935;BME280;51033;42.648;23.292;2023-04-03T06:12:48;93237.75;;;8.73;52.46
30935;BME280;51033;42.648;23.292;2023-04-03T06:15:14;93218.09;;;8.82;52.33
30935;BME280;51033;42.648;23.292;2023-04-03T06:17:39;93223.22;;;8.87;52.12
30935;BME280;51033;42.648;23.292;2023-04-03T06:20:05;93215.09;;;8.92;52.36
30935;BME280;51033;42.648;23.292;2023-04-03T06:22:31;93219.00;;;8.95;51.90
30935;BME280;51033;42.648;23.292;2023-04-03T06:24:57;93229.25;;;9.05;51.61
30935;BME280;51033;42.648;23.292;2023-04-03T06:27:22;93235.97;;;9.02;51.55
30935;BME280;51033;42.648;23.292;2023-04-03T06:29:48;93226.09;;;9.20;51.05
30935;BME280;51033;42.648;23.292;2023-04-03T06:32:15;93216.13;;;9.17;50.81
30935;BME280;51033;42.648;23.292;2023-04-03T06:34:40;93232.72;;;8.97;51.31
30935;BME280;51033;42.648;23.292;2023-04-03T06:37:10;93240.84;;;8.92;51.04
30935;BME280;51033;42.648;23.292;2023-04-03T06:39:40;93240.22;;;8.95;50.59
30935;BME280;51033;42.648;23.292;2023-04-03T06:42:05;93238.75;;;8.51;51.59
30935;BME280;51033;42.648;23.292;2023-04-03T06:44:30;93222.66;;;7.79;53.30
30935;BME280;51033;42.648;23.292;2023-04-03T06:46:58;93232.50;;;7.95;53.77
30935;BME280;51033;42.648;23.292;2023-04-03T06:49:24;93242.22;;;7.69;54.49
30935;BME280;51033;42.648;23.292;2023-04-03T06:51:50;93233.88;;;7.36;55.31
30935;BME280;51033;42.648;23.292;2023-04-03T06:54:16;93245.75;;;7.47;55.26
30935;BME280;51033;42.648;23.292;2023-04-03T06:56:42;93246.66;;;7.82;54.06
30935;BME280;51033;42.648;23.292;2023-04-03T06:59:08;93258.97;;;8.12;53.22
30935;BME280;51033;42.648;23.292;2023-04-03T07:01:34;93244.66;;;8.05;53.37
30935;BME280;51033;42.648;23.292;2023-04-03T07:04:00;93203.84;;;8.06;53.18
30935;BME280;51033;42.648;23.292;2023-04-03T07:06:25;93256.19;;;8.09;54.37
30935;BME280;51033;42.648;23.292;2023-04-03T07:08:55;93240.13;;;8.05;54.44
30935;BME280;51033;42.648;23.292;2023-04-03T07:11:20;93242.00;;;8.05;54.81
30935;BME280;51033;42.648;23.292;2023-04-03T07:13:46;93232.19;;;8.48;53.60
30935;BME280;51033;42.648;23.292;2023-04-03T07:16:11;93224.16;;;8.91;53.20
30935;BME280;51033;42.648;23.292;2023-04-03T07:18:37;93236.75;;;9.03;52.12
30935;BME280;51033;42.648;23.292;2023-04-03T07:21:03;93231.16;;;9.13;51.62
30935;BME280;51033;42.648;23.292;2023-04-03T07:23:29;93225.88;;;9.42;50.98
30935;BME280;51033;42.648;23.292;2023-04-03T07:25:55;93204.59;;;9.51;50.26
30935;BME280;51033;42.648;23.292;2023-04-03T07:28:21;93226.69;;;9.64;50.38
30935;BME280;51033;42.648;23.292;2023-04-03T07:31:00;93219.44;;;9.52;50.38
30935;BME280;51033;42.648;23.292;2023-04-03T07:33:26;93225.03;;;9.51;50.29
30935;BME280;51033;42.648;23.292;2023-04-03T07:35:52;93190.72;;;9.45;50.38
30935;BME280;51033;42.648;23.292;2023-04-03T07:38:17;93213.69;;;9.71;50.38
30935;BME280;51033;42.648;23.292;2023-04-03T07:40:48;93213.34;;;9.05;51.29
30935;BME280;51033;42.648;23.292;2023-04-03T07:43:18;93220.63;;;9.34;50.91
30935;BME280;51033;42.648;23.292;2023-04-03T07:45:43;93195.78;;;9.38;50.42
30935;BME280;51033;42.648;23.292;2023-04-03T07:48:11;93203.25;;;9.66;49.63
30935;BME280;51033;42.648;23.292;2023-04-03T07:50:36;93169.72;;;9.61;49.67
30935;BME280;51033;42.648;23.292;2023-04-03T07:53:02;93197.78;;;9.92;49.62
30935;BME280;51033;42.648;23.292;2023-04-03T07:55:28;93194.44;;;9.24;49.56
30935;BME280;51033;42.648;23.292;2023-04-03T07:57:53;93210.13;;;8.82;51.82
30935;BME280;51033;42.648;23.292;2023-04-03T08:00:19;93192.09;;;9.22;50.90
30935;BME280;51033;42.648;23.292;2023-04-03T08:02:45;93204.53;;;8.84;51.58
30935;BME280;51033;42.648;23.292;2023-04-03T08:05:18;93197.72;;;8.66;52.69
30935;BME280;51033;42.648;23.292;2023-04-03T08:07:44;93193.44;;;8.82;51.52
30935;BME280;51033;42.648;23.292;2023-04-03T08:10:10;93175.72;;;8.56;51.65
30935;BME280;51033;42.648;23.292;2023-04-03T08:12:36;93201.56;;;8.77;52.41
30935;BME280;51033;42.648;23.292;2023-04-03T08:15:02;93199.13;;;8.37;53.05
30935;BME280;51033;42.648;23.292;2023-04-03T08:17:28;93167.22;;;7.73;53.73
30935;BME280;51033;42.648;23.292;2023-04-03T08:19:54;93199.31;;;8.24;53.83
30935;BME280;51033;42.648;23.292;2023-04-03T08:22:19;93179.22;;;8.14;54.39
30935;BME280;51033;42.648;23.292;2023-04-03T08:24:45;93185.91;;;7.94;54.27
30935;BME280;51033;42.648;23.292;2023-04-03T08:27:10;93189.94;;;8.43;53.25
30935;BME280;51033;42.648;23.292;2023-04-03T08:29:36;93184.31;;;8.53;53.37
30935;BME280;51033;42.648;23.292;2023-04-03T08:32:03;93174.47;;;8.63;52.71
30935;BME280;51033;42.648;23.292;2023-04-03T08:34:29;93194.59;;;8.46;53.20
30935;BME280;51033;42.648;23.292;2023-04-03T08:36:54;93190.44;;;7.94;54.86
30935;BME280;51033;42.648;23.292;2023-04-03T08:39:20;93183.28;;;8.20;54.99
30935;BME280;51033;42.648;23.292;2023-04-03T08:41:46;93178.22;;;8.62;53.71
30935;BME280;51033;42.648;23.292;2023-04-03T08:44:38;93177.94;;;8.54;53.27
30935;BME280;51033;42.648;23.292;2023-04-03T08:49:53;93179.25;;;8.78;53.29
30935;BME280;51033;42.648;23.292;2023-04-03T08:52:42;93162.81;;;8.55;53.41
30935;BME280;51033;42.648;23.292;2023-04-03T08:55:27;93141.03;;;8.41;53.27
30935;BME280;51033;42.648;23.292;2023-04-03T08:58:18;93164.56;;;7.99;54.62
30935;BME280;51033;42.648;23.292;2023-04-03T09:00:49;93159.13;;;8.04;55.48
30935;BME280;51033;42.648;23.292;2023-04-03T09:03:18;93147.38;;;8.48;54.27
30935;BME280;51033;42.648;23.292;2023-04-03T09:08:23;93146.81;;;8.81;53.76
30935;BME280;51033;42.648;23.292;2023-04-03T09:11:21;93132.13;;;8.37;54.48
30935;BME280;51033;42.648;23.292;2023-04-03T09:19:21;93128.97;;;8.61;54.78
30935;BME280;51033;42.648;23.292;2023-04-03T09:21:47;93130.34;;;8.58;54.20
30935;BME280;51033;42.648;23.292;2023-04-03T09:24:15;93122.03;;;8.30;54.51
30935;BME280;51033;42.648;23.292;2023-04-03T09:26:55;93136.03;;;8.39;54.21
30935;BME280;51033;42.648;23.292;2023-04-03T09:29:24;93119.63;;;8.54;53.70
30935;BME280;51033;42.648;23.292;2023-04-03T09:32:00;93116.25;;;8.83;51.50
30935;BME280;51033;42.648;23.292;2023-04-03T09:36:55;93102.75;;;8.97;50.27
30935;BME280;51033;42.648;23.292;2023-04-03T09:39:24;93116.81;;;8.97;49.06
30935;BME280;51033;42.648;23.292;2023-04-03T09:44:37;93086.16;;;8.79;48.41
30935;BME280;51033;42.648;23.292;2023-04-03T09:47:38;93076.53;;;8.75;48.92
30935;BME280;51033;42.648;23.292;2023-04-03T09:52:40;93092.53;;;9.16;47.57
30935;BME280;51033;42.648;23.292;2023-04-03T09:55:16;93094.44;;;9.07;47.81
30935;BME280;51033;42.648;23.292;2023-04-03T09:57:42;93056.84;;;8.76;48.28
30935;BME280;51033;42.648;23.292;2023-04-03T10:00:21;93083.06;;;9.07;47.65
30935;BME280;51033;42.648;23.292;2023-04-03T10:02:51;93097.09;;;9.36;47.38
30935;BME280;51033;42.648;23.292;2023-04-03T10:05:44;93096.97;;;9.33;47.50
30935;BME280;51033;42.648;23.292;2023-04-03T10:13:33;93090.28;;;8.97;48.44
30935;BME280;51033;42.648;23.292;2023-04-03T10:16:13;93094.34;;;9.24;47.74
30935;BME280;51033;42.648;23.292;2023-04-03T10:24:23;93077.03;;;8.97;48.25
30935;BME280;51033;42.648;23.292;2023-04-03T10:27:00;93069.47;;;9.08;48.18
30935;BME280;51033;42.648;23.292;2023-04-03T10:29:39;93077.28;;;9.13;48.60
30935;BME280;51033;42.648;23.292;2023-04-03T10:34:43;93042.66;;;9.01;48.94
30935;BME280;51033;42.648;23.292;2023-04-03T10:37:21;93065.66;;;9.26;48.66
30935;BME280;51033;42.648;23.292;2023-04-03T10:40:05;93023.97;;;8.97;48.68
30935;BME280;51033;42.648;23.292;2023-04-03T10:45:28;93054.16;;;8.84;49.58
30935;BME280;51033;42.648;23.292;2023-04-03T10:48:10;93042.84;;;8.67;49.62
30935;BME280;51033;42.648;23.292;2023-04-03T10:50:51;93061.56;;;8.70;50.33
30935;BME280;51033;42.648;23.292;2023-04-03T10:53:30;93051.72;;;9.00;49.72
30935;BME280;51033;42.648;23.292;2023-04-03T10:58:44;93031.88;;;8.77;50.51
30935;BME280;51033;42.648;23.292;2023-04-03T11:01:20;93030.63;;;8.83;51.03
30935;BME280;51033;42.648;23.292;2023-04-03T11:03:56;93062.16;;;9.14;51.94
30935;BME280;51033;42.648;23.292;2023-04-03T11:06:25;93024.75;;;8.98;52.14
30935;BME280;51033;42.648;23.292;2023-04-03T11:08:57;93055.66;;;8.65;53.08
30935;BME280;51033;42.648;23.292;2023-04-03T11:11:31;93072.19;;;8.62;54.51
30935;BME280;51033;42.648;23.292;2023-04-03T11:14:00;93081.09;;;8.95;55.60
30935;BME280;51033;42.648;23.292;2023-04-03T11:16:30;93076.00;;;8.43;56.13
30935;BME280;51033;42.648;23.292;2023-04-03T11:18:59;93064.47;;;8.39;57.80
30935;BME280;51033;42.648;23.292;2023-04-03T11:21:39;93052.41;;;8.21;60.78
30935;BME280;51033;42.648;23.292;2023-04-03T11:24:15;93048.28;;;8.32;63.65
30935;BME280;51033;42.648;23.292;2023-04-03T11:26:43;93057.69;;;8.21;64.25
30935;BME280;51033;42.648;23.292;2023-04-03T11:29:14;93062.66;;;8.31;66.84
30935;BME280;51033;42.648;23.292;2023-04-03T11:32:11;93077.66;;;8.01;69.53
30935;BME280;51033;42.648;23.292;2023-04-03T11:34:45;93077.00;;;8.13;71.23
30935;BME280;51033;42.648;23.292;2023-04-03T11:39:54;93061.63;;;7.89;72.36
30935;BME280;51033;42.648;23.292;2023-04-03T11:42:35;93080.00;;;7.68;73.85
30935;BME280;51033;42.648;23.292;2023-04-03T12:00:50;93076.63;;;6.85;79.55
30935;BME280;51033;42.648;23.292;2023-04-03T12:24:24;93058.34;;;6.19;84.41
30935;BME280;51033;42.648;23.292;2023-04-03T12:40:57;93051.13;;;5.80;87.24
30935;BME280;51033;42.648;23.292;2023-04-03T12:43:44;93020.84;;;5.55;88.86
30935;BME280;51033;42.648;23.292;2023-04-03T12:46:18;93016.31;;;5.47;89.61
30935;BME280;51033;42.648;23.292;2023-04-03T12:51:17;93013.06;;;5.72;88.48
30935;BME280;51033;42.648;23.292;2023-04-03T12:53:45;93021.84;;;5.90;89.12
30935;BME280;51033;42.648;23.292;2023-04-03T12:56:26;93006.34;;;5.44;89.13
30935;BME280;51033;42.648;23.292;2023-04-03T12:58:53;93022.31;;;5.61;89.61
30935;BME280;51033;42.648;23.292;2023-04-03T13:01:24;93023.75;;;5.67;88.95
30935;BME280;51033;42.648;23.292;2023-04-03T13:03:55;93018.75;;;5.66;87.91
30935;BME280;51033;42.648;23.292;2023-04-03T13:06:33;93025.06;;;5.56;89.18
30935;BME280;51033;42.648;23.292;2023-04-03T13:09:00;93011.31;;;5.68;88.90
30935;BME280;51033;42.648;23.292;2023-04-03T13:11:46;93016.19;;;5.52;88.85
30935;BME280;51033;42.648;23.292;2023-04-03T13:14:19;93019.25;;;5.45;89.98
30935;BME280;51033;42.648;23.292;2023-04-03T13:17:24;93018.94;;;5.25;90.16
30935;BME280;51033;42.648;23.292;2023-04-03T13:19:50;93013.41;;;5.12;89.70
30935;BME280;51033;42.648;23.292;2023-04-03T13:24:55;93017.34;;;5.01;89.74
30935;BME280;51033;42.648;23.292;2023-04-03T13:27:22;92996.97;;;4.93;90.42
30935;BME280;51033;42.648;23.292;2023-04-03T13:29:53;92999.13;;;4.91;90.61
30935;BME280;51033;42.648;23.292;2023-04-03T13:32:24;93005.13;;;5.05;90.72
30935;BME280;51033;42.648;23.292;2023-04-03T13:34:51;92999.84;;;4.83;90.47
30935;BME280;51033;42.648;23.292;2023-04-03T13:37:29;93008.31;;;4.80;90.66
30935;BME280;51033;42.648;23.292;2023-04-03T13:40:10;92990.59;;;4.72;90.89
30935;BME280;51033;42.648;23.292;2023-04-03T13:42:41;93005.78;;;4.75;90.25
30935;BME280;51033;42.648;23.292;2023-04-03T13:45:18;93003.47;;;4.74;90.58
30935;BME280;51033;42.648;23.292;2023-04-03T13:47:47;93007.34;;;4.76;90.36
30935;BME280;51033;42.648;23.292;2023-04-03T13:50:24;93005.97;;;4.92;89.38
30935;BME280;51033;42.648;23.292;2023-04-03T13:53:00;92999.50;;;4.85;89.86
30935;BME280;51033;42.648;23.292;2023-04-03T13:55:35;92975.69;;;4.54;89.58
30935;BME280;51033;42.648;23.292;2023-04-03T13:58:20;92978.13;;;4.50;90.32
30935;BME280;51033;42.648;23.292;2023-04-03T14:00:50;92991.41;;;4.45;90.77
30935;BME280;51033;42.648;23.292;2023-04-03T14:03:24;92995.88;;;4.58;90.00
30935;BME280;51033;42.648;23.292;2023-04-03T14:05:53;92967.63;;;4.37;89.91
30935;BME280;51033;42.648;23.292;2023-04-03T14:08:19;92993.16;;;4.50;90.66
30935;BME280;51033;42.648;23.292;2023-04-03T14:10:46;92999.19;;;4.50;90.83
30935;BME280;51033;42.648;23.292;2023-04-03T14:13:18;92979.59;;;4.43;91.34
30935;BME280;51033;42.648;23.292;2023-04-03T14:15:44;92983.28;;;4.55;90.60
30935;BME280;51033;42.648;23.292;2023-04-03T14:18:14;92986.09;;;4.73;90.28
30935;BME280;51033;42.648;23.292;2023-04-03T14:20:41;92997.22;;;4.56;90.86
30935;BME280;51033;42.648;23.292;2023-04-03T14:23:07;92989.41;;;4.78;90.88
30935;BME280;51033;42.648;23.292;2023-04-03T14:25:32;92979.44;;;4.75;89.56
30935;BME280;51033;42.648;23.292;2023-04-03T14:27:58;92942.81;;;4.51;88.91
30935;BME280;51033;42.648;23.292;2023-04-03T14:30:30;92985.91;;;4.69;89.05
30935;BME280;51033;42.648;23.292;2023-04-03T14:32:57;92972.66;;;4.60;89.10
30935;BME280;51033;42.648;23.292;2023-04-03T14:35:22;92928.03;;;4.28;89.52
30935;BME280;51033;42.648;23.292;2023-04-03T14:37:49;92980.56;;;4.96;89.21
30935;BME280;51033;42.648;23.292;2023-04-03T14:40:19;92972.38;;;4.98;88.29
30935;BME280;51033;42.648;23.292;2023-04-03T14:42:45;92976.13;;;4.83;87.65
30935;BME280;51033;42.648;23.292;2023-04-03T14:45:12;92968.72;;;4.72;87.96
30935;BME280;51033;42.648;23.292;2023-04-03T14:47:47;92965.19;;;4.76;87.26
30935;BME280;51033;42.648;23.292;2023-04-03T14:50:17;92959.75;;;4.73;87.22